sensor_id;sensor_type;location;lat;lon;timestamp;pressure;altitude;pressure_sealevel;temperature;humidity
6198;BME280;3132;42.622;23.328;2023-07-13T00:01:04;93151.94;;;22.32;61.90
6198;BME280;3132;42.622;23.328;2023-07-13T00:03:31;93153.72;;;22.40;63.24
6198;BME280;3132;42.622;23.328;2023-07-13T00:06:01;93153.31;;;22.26;62.50
6198;BME280;3132;42.622;23.328;2023-07-13T00:08:30;93147.31;;;22.29;61.53
6198;BME280;3132;42.622;23.328;2023-07-13T00:10:57;93139.44;;;22.33;61.06
6198;BME280;3132;42.622;23.328;2023-07-13T00:13:23;93131.84;;;22.19;61.83
6198;BME280;3132;42.622;23.328;2023-07-13T00:15:48;93129.94;;;22.19;63.30
6198;BME280;3132;42.622;23.328;2023-07-13T00:18:14;93139.25;;;22.26;62.95
6198;BME280;3132;42.622;23.328;2023-07-13T00:20:40;93122.72;;;22.20;63.32
6198;BME280;3132;42.622;23.328;2023-07-13T00:23:06;93120.63;;;22.26;63.38
6198;BME280;3132;42.622;23.328;2023-07-13T00:25:32;93132.97;;;22.06;65.13
6198;BME280;3132;42.622;23.328;2023-07-13T00:27:57;93122.00;;;22.07;64.99
6198;BME280;3132;42.622;23.328;2023-07-13T00:30:23;93123.69;;;22.00;65.31
6198;BME280;3132;42.622;23.328;2023-07-13T00:32:49;93124.53;;;22.04;65.90
6198;BME280;3132;42.622;23.328;2023-07-13T00:35:15;93124.66;;;22.07;64.36
6198;BME280;3132;42.622;23.328;2023-07-13T00:37:40;93130.66;;;21.92;65.06
6198;BME280;3132;42.622;23.328;2023-07-13T00:40:07;93130.22;;;21.90;66.42
6198;BME280;3132;42.622;23.328;2023-07-13T00:42:33;93126.56;;;21.71;67.41
6198;BME280;3132;42.622;23.328;2023-07-13T00:47:36;93127.94;;;21.77;66.41
6198;BME280;3132;42.622;23.328;2023-07-13T00:50:02;93122.00;;;21.71;67.68
6198;BME280;3132;42.622;23.328;2023-07-13T00:52:29;93131.91;;;21.71;67.02
6198;BME280;3132;42.622;23.328;2023-07-13T00:54:55;93125.47;;;21.72;66.37
6198;BME280;3132;42.622;23.328;2023-07-13T00:57:21;93128.78;;;21.69;66.92
6198;BME280;3132;42.622;23.328;2023-07-13T00:59:51;93123.50;;;21.57;67.65
6198;BME280;3132;42.622;23.328;2023-07-13T01:02:17;93116.84;;;21.51;67.59
6198;BME280;3132;42.622;23.328;2023-07-13T01:04:43;93114.41;;;21.58;68.22
6198;BME280;3132;42.622;23.328;2023-07-13T01:07:09;93111.06;;;21.61;67.26
6198;BME280;3132;42.622;23.328;2023-07-13T01:09:35;93114.84;;;21.60;67.34
6198;BME280;3132;42.622;23.328;2023-07-13T01:12:01;93111.66;;;21.30;69.42
6198;BME280;3132;42.622;23.328;2023-07-13T01:14:27;93100.34;;;21.45;69.35
6198;BME280;3132;42.622;23.328;2023-07-13T01:16:53;93109.63;;;21.51;69.22
6198;BME280;3132;42.622;23.328;2023-07-13T01:19:25;93115.84;;;21.43;69.29
6198;BME280;3132;42.622;23.328;2023-07-13T01:22:01;93117.84;;;21.34;69.09
6198;BME280;3132;42.622;23.328;2023-07-13T01:24:26;93105.75;;;21.25;69.77
6198;BME280;3132;42.622;23.328;2023-07-13T01:26:52;93104.56;;;21.22;69.94
6198;BME280;3132;42.622;23.328;2023-07-13T01:29:17;93096.91;;;21.33;67.72
6198;BME280;3132;42.622;23.328;2023-07-13T01:31:42;93094.91;;;21.54;66.99
6198;BME280;3132;42.622;23.328;2023-07-13T01:34:09;93102.44;;;21.52;68.22
6198;BME280;3132;42.622;23.328;2023-07-13T01:36:35;93109.31;;;21.53;67.53
6198;BME280;3132;42.622;23.328;2023-07-13T01:39:01;93084.75;;;21.32;69.88
6198;BME280;3132;42.622;23.328;2023-07-13T01:41:27;93108.44;;;21.49;69.74
6198;BME280;3132;42.622;23.328;2023-07-13T01:43:52;93104.00;;;21.53;68.76
6198;BME280;3132;42.622;23.328;2023-07-13T01:46:18;93098.59;;;21.49;68.40
6198;BME280;3132;42.622;23.328;2023-07-13T01:48:43;93094.25;;;21.21;71.11
6198;BME280;3132;42.622;23.328;2023-07-13T01:51:08;93050.22;;;20.96;71.10
6198;BME280;3132;42.622;23.328;2023-07-13T01:53:34;93103.47;;;21.35;69.91
6198;BME280;3132;42.622;23.328;2023-07-13T01:55:59;93106.56;;;21.49;70.75
6198;BME280;3132;42.622;23.328;2023-07-13T01:58:25;93098.16;;;21.35;70.30
6198;BME280;3132;42.622;23.328;2023-07-13T02:00:51;92984.56;;;20.60;71.48
6198;BME280;3132;42.622;23.328;2023-07-13T02:03:16;93104.78;;;21.41;71.57
6198;BME280;3132;42.622;23.328;2023-07-13T02:05:44;93106.09;;;21.23;71.30
6198;BME280;3132;42.622;23.328;2023-07-13T02:08:09;93113.44;;;20.94;71.05
6198;BME280;3132;42.622;23.328;2023-07-13T02:10:34;93110.41;;;21.16;71.90
6198;BME280;3132;42.622;23.328;2023-07-13T02:13:00;93111.78;;;20.89;73.14
6198;BME280;3132;42.622;23.328;2023-07-13T02:15:25;93109.44;;;20.76;72.76
6198;BME280;3132;42.622;23.328;2023-07-13T02:17:50;93099.09;;;20.95;71.91
6198;BME280;3132;42.622;23.328;2023-07-13T02:20:16;93097.75;;;20.89;72.93
6198;BME280;3132;42.622;23.328;2023-07-13T02:22:41;93107.59;;;20.88;72.33
6198;BME280;3132;42.622;23.328;2023-07-13T02:25:07;93111.06;;;21.13;72.07
6198;BME280;3132;42.622;23.328;2023-07-13T02:27:32;93118.38;;;21.16;71.85
6198;BME280;3132;42.622;23.328;2023-07-13T02:29:58;93111.59;;;21.06;72.89
6198;BME280;3132;42.622;23.328;2023-07-13T02:32:23;93119.81;;;21.01;72.88
6198;BME280;3132;42.622;23.328;2023-07-13T02:34:51;93124.78;;;21.03;73.35
6198;BME280;3132;42.622;23.328;2023-07-13T02:37:17;93125.66;;;21.07;72.71
6198;BME280;3132;42.622;23.328;2023-07-13T02:39:42;93127.44;;;21.03;73.57
6198;BME280;3132;42.622;23.328;2023-07-13T02:42:08;93122.56;;;21.05;73.77
6198;BME280;3132;42.622;23.328;2023-07-13T02:44:33;93099.28;;;20.90;74.64
6198;BME280;3132;42.622;23.328;2023-07-13T02:46:59;93127.78;;;21.01;74.34
6198;BME280;3132;42.622;23.328;2023-07-13T02:49:24;93119.81;;;21.01;74.91
6198;BME280;3132;42.622;23.328;2023-07-13T02:51:50;93115.59;;;21.00;74.52
6198;BME280;3132;42.622;23.328;2023-07-13T02:54:16;93119.22;;;20.96;74.26
6198;BME280;3132;42.622;23.328;2023-07-13T02:56:41;93123.63;;;20.92;74.06
6198;BME280;3132;42.622;23.328;2023-07-13T02:59:08;93126.50;;;20.87;75.25
6198;BME280;3132;42.622;23.328;2023-07-13T03:01:34;93119.84;;;20.81;75.84
6198;BME280;3132;42.622;23.328;2023-07-13T03:04:00;93106.78;;;20.76;74.67
6198;BME280;3132;42.622;23.328;2023-07-13T03:06:26;93130.03;;;20.91;73.61
6198;BME280;3132;42.622;23.328;2023-07-13T03:08:55;93120.44;;;20.98;74.03
6198;BME280;3132;42.622;23.328;2023-07-13T03:11:21;93126.66;;;21.02;73.30
6198;BME280;3132;42.622;23.328;2023-07-13T03:13:46;93126.81;;;20.85;72.88
6198;BME280;3132;42.622;23.328;2023-07-13T03:16:12;93124.34;;;21.01;74.31
6198;BME280;3132;42.622;23.328;2023-07-13T03:18:38;93130.91;;;21.15;73.87
6198;BME280;3132;42.622;23.328;2023-07-13T03:21:04;93134.09;;;21.33;72.85
6198;BME280;3132;42.622;23.328;2023-07-13T03:23:30;93138.66;;;21.44;71.82
6198;BME280;3132;42.622;23.328;2023-07-13T03:26:17;93129.03;;;21.40;72.59
6198;BME280;3132;42.622;23.328;2023-07-13T03:28:43;93135.00;;;21.49;73.03
6198;BME280;3132;42.622;23.328;2023-07-13T03:31:12;93135.66;;;21.58;71.85
6198;BME280;3132;42.622;23.328;2023-07-13T03:33:38;93124.38;;;21.49;73.20
6198;BME280;3132;42.622;23.328;2023-07-13T03:36:05;93105.78;;;21.37;73.15
6198;BME280;3132;42.622;23.328;2023-07-13T03:44:44;93139.53;;;21.48;75.35
6198;BME280;3132;42.622;23.328;2023-07-13T03:47:15;93135.78;;;21.61;74.76
6198;BME280;3132;42.622;23.328;2023-07-13T03:49:41;93126.13;;;21.33;75.14
6198;BME280;3132;42.622;23.328;2023-07-13T03:52:06;93134.56;;;21.83;73.43
6198;BME280;3132;42.622;23.328;2023-07-13T03:54:32;93128.72;;;22.17;72.51
6198;BME280;3132;42.622;23.328;2023-07-13T03:56:58;93127.16;;;22.28;71.85
6198;BME280;3132;42.622;23.328;2023-07-13T03:59:23;93120.13;;;22.36;73.11
6198;BME280;3132;42.622;23.328;2023-07-13T04:01:48;93134.47;;;22.59;72.26
6198;BME280;3132;42.622;23.328;2023-07-13T04:04:14;93135.66;;;22.73;72.37
6198;BME280;3132;42.622;23.328;2023-07-13T04:06:40;93145.88;;;23.14;71.78
6198;BME280;3132;42.622;23.328;2023-07-13T04:09:06;93128.16;;;23.22;71.54
6198;BME280;3132;42.622;23.328;2023-07-13T04:11:32;93141.66;;;23.29;71.67
6198;BME280;3132;42.622;23.328;2023-07-13T04:13:58;93136.69;;;23.43;71.71
6198;BME280;3132;42.622;23.328;2023-07-13T04:16:24;93136.25;;;23.56;70.69
6198;BME280;3132;42.622;23.328;2023-07-13T04:18:51;93120.53;;;23.51;70.51
6198;BME280;3132;42.622;23.328;2023-07-13T04:21:20;93128.75;;;23.62;71.91
6198;BME280;3132;42.622;23.328;2023-07-13T04:23:45;93132.09;;;23.74;72.01
6198;BME280;3132;42.622;23.328;2023-07-13T04:26:11;93114.47;;;23.70;71.45
6198;BME280;3132;42.622;23.328;2023-07-13T04:28:36;93128.13;;;24.00;70.61
6198;BME280;3132;42.622;23.328;2023-07-13T04:31:02;93141.66;;;24.26;69.57
6198;BME280;3132;42.622;23.328;2023-07-13T04:33:27;93153.31;;;24.37;69.46
6198;BME280;3132;42.622;23.328;2023-07-13T04:35:54;93166.88;;;24.47;69.88
6198;BME280;3132;42.622;23.328;2023-07-13T04:38:22;93153.28;;;24.71;69.29
6198;BME280;3132;42.622;23.328;2023-07-13T04:40:48;93152.19;;;24.57;67.87
6198;BME280;3132;42.622;23.328;2023-07-13T04:43:13;93167.03;;;24.54;67.73
6198;BME280;3132;42.622;23.328;2023-07-13T04:45:39;93172.88;;;24.06;69.77
6198;BME280;3132;42.622;23.328;2023-07-13T04:48:04;93169.75;;;24.58;66.60
6198;BME280;3132;42.622;23.328;2023-07-13T04:50:30;93175.63;;;23.78;69.77
6198;BME280;3132;42.622;23.328;2023-07-13T04:52:55;93165.16;;;23.54;69.75
6198;BME280;3132;42.622;23.328;2023-07-13T04:55:21;93117.34;;;23.30;69.88
6198;BME280;3132;42.622;23.328;2023-07-13T04:57:46;93167.44;;;24.37;68.02
6198;BME280;3132;42.622;23.328;2023-07-13T05:00:12;93178.88;;;25.14;65.22
6198;BME280;3132;42.622;23.328;2023-07-13T05:02:39;93177.13;;;25.63;63.86
6198;BME280;3132;42.622;23.328;2023-07-13T05:05:05;93172.94;;;25.66;64.61
6198;BME280;3132;42.622;23.328;2023-07-13T05:07:31;93183.38;;;25.29;66.66
6198;BME280;3132;42.622;23.328;2023-07-13T05:09:58;93186.72;;;25.45;63.07
6198;BME280;3132;42.622;23.328;2023-07-13T05:12:24;93188.16;;;25.20;66.07
6198;BME280;3132;42.622;23.328;2023-07-13T05:14:50;93178.59;;;24.43;68.13
6198;BME280;3132;42.622;23.328;2023-07-13T05:17:15;93191.16;;;24.96;68.24
6198;BME280;3132;42.622;23.328;2023-07-13T05:19:40;93200.84;;;25.23;65.66
6198;BME280;3132;42.622;23.328;2023-07-13T05:22:06;93199.72;;;24.86;67.22
6198;BME280;3132;42.622;23.328;2023-07-13T05:24:31;93193.63;;;24.85;67.53
6198;BME280;3132;42.622;23.328;2023-07-13T05:26:56;93209.59;;;24.82;67.59
6198;BME280;3132;42.622;23.328;2023-07-13T05:29:22;93201.09;;;25.37;64.92
6198;BME280;3132;42.622;23.328;2023-07-13T05:31:48;93208.09;;;25.87;61.87
6198;BME280;3132;42.622;23.328;2023-07-13T05:34:14;93208.50;;;26.11;62.90
6198;BME280;3132;42.622;23.328;2023-07-13T05:36:39;93209.97;;;26.61;60.32
6198;BME280;3132;42.622;23.328;2023-07-13T05:39:05;93211.44;;;26.58;59.81
6198;BME280;3132;42.622;23.328;2023-07-13T05:41:30;93203.63;;;26.72;60.66
6198;BME280;3132;42.622;23.328;2023-07-13T05:43:56;93218.56;;;28.16;56.12
6198;BME280;3132;42.622;23.328;2023-07-13T05:46:22;93217.91;;;28.98;52.43
6198;BME280;3132;42.622;23.328;2023-07-13T05:48:47;93206.25;;;30.19;48.93
6198;BME280;3132;42.622;23.328;2023-07-13T05:51:13;93226.66;;;32.27;44.19
6198;BME280;3132;42.622;23.328;2023-07-13T05:53:39;93241.41;;;34.97;38.32
6198;BME280;3132;42.622;23.328;2023-07-13T05:56:04;93231.53;;;36.01;33.60
6198;BME280;3132;42.622;23.328;2023-07-13T05:58:29;93242.81;;;36.00;34.73
6198;BME280;3132;42.622;23.328;2023-07-13T06:01:08;93251.78;;;37.82;31.54
6198;BME280;3132;42.622;23.328;2023-07-13T06:03:34;93257.06;;;38.65;30.23
6198;BME280;3132;42.622;23.328;2023-07-13T06:06:00;93254.31;;;39.45;29.11
6198;BME280;3132;42.622;23.328;2023-07-13T06:08:26;93248.75;;;40.89;25.85
6198;BME280;3132;42.622;23.328;2023-07-13T06:10:51;93235.72;;;41.38;25.74
6198;BME280;3132;42.622;23.328;2023-07-13T06:13:16;93243.25;;;42.07;25.17
6198;BME280;3132;42.622;23.328;2023-07-13T06:15:48;93247.84;;;41.83;23.24
6198;BME280;3132;42.622;23.328;2023-07-13T06:18:13;93242.22;;;40.38;24.77
6198;BME280;3132;42.622;23.328;2023-07-13T06:20:39;93258.44;;;40.24;25.77
6198;BME280;3132;42.622;23.328;2023-07-13T06:23:04;93257.81;;;39.12;27.29
6198;BME280;3132;42.622;23.328;2023-07-13T06:25:29;93265.84;;;38.81;27.93
6198;BME280;3132;42.622;23.328;2023-07-13T06:27:55;93263.38;;;39.21;27.32
6198;BME280;3132;42.622;23.328;2023-07-13T06:30:20;93263.13;;;41.20;24.86
6198;BME280;3132;42.622;23.328;2023-07-13T06:32:45;93264.63;;;40.15;25.52
6198;BME280;3132;42.622;23.328;2023-07-13T06:35:11;93240.03;;;35.68;31.17
6198;BME280;3132;42.622;23.328;2023-07-13T06:37:38;93253.03;;;40.81;25.26
6198;BME280;3132;42.622;23.328;2023-07-13T06:40:04;93250.97;;;41.12;24.54
6198;BME280;3132;42.622;23.328;2023-07-13T06:42:30;93260.00;;;42.18;23.12
6198;BME280;3132;42.622;23.328;2023-07-13T06:44:55;93255.94;;;40.47;25.21
6198;BME280;3132;42.622;23.328;2023-07-13T06:47:20;93255.69;;;39.93;25.72
6198;BME280;3132;42.622;23.328;2023-07-13T06:49:46;93246.13;;;37.48;29.32
6198;BME280;3132;42.622;23.328;2023-07-13T06:52:11;93224.56;;;37.25;28.92
6198;BME280;3132;42.622;23.328;2023-07-13T06:54:37;93226.69;;;34.26;33.01
6198;BME280;3132;42.622;23.328;2023-07-13T06:57:02;93211.94;;;31.77;38.82
6198;BME280;3132;42.622;23.328;2023-07-13T06:59:27;93202.38;;;30.62;43.32
6198;BME280;3132;42.622;23.328;2023-07-13T07:01:53;93204.63;;;30.98;42.09
6198;BME280;3132;42.622;23.328;2023-07-13T07:04:18;93216.28;;;30.50;43.94
6198;BME280;3132;42.622;23.328;2023-07-13T07:06:43;93211.59;;;29.55;48.24
6198;BME280;3132;42.622;23.328;2023-07-13T07:09:09;93222.47;;;30.26;46.28
6198;BME280;3132;42.622;23.328;2023-07-13T07:11:34;93220.53;;;30.19;46.84
6198;BME280;3132;42.622;23.328;2023-07-13T07:13:59;93217.81;;;29.81;48.32
6198;BME280;3132;42.622;23.328;2023-07-13T07:16:25;93220.00;;;29.47;50.28
6198;BME280;3132;42.622;23.328;2023-07-13T07:18:51;93207.16;;;28.95;51.69
6198;BME280;3132;42.622;23.328;2023-07-13T07:21:16;93214.66;;;29.61;48.27
6198;BME280;3132;42.622;23.328;2023-07-13T07:23:42;93220.09;;;29.64;49.63
6198;BME280;3132;42.622;23.328;2023-07-13T07:26:08;93218.03;;;29.26;51.19
6198;BME280;3132;42.622;23.328;2023-07-13T07:28:35;93219.34;;;29.89;48.32
6198;BME280;3132;42.622;23.328;2023-07-13T07:31:00;93219.63;;;29.41;49.92
6198;BME280;3132;42.622;23.328;2023-07-13T07:33:26;93212.34;;;29.52;49.10
6198;BME280;3132;42.622;23.328;2023-07-13T07:35:51;93206.19;;;29.48;50.95
6198;BME280;3132;42.622;23.328;2023-07-13T07:38:17;93192.34;;;29.46;50.76
6198;BME280;3132;42.622;23.328;2023-07-13T07:40:43;93205.00;;;29.32;50.88
6198;BME280;3132;42.622;23.328;2023-07-13T07:43:10;93207.81;;;29.85;48.60
6198;BME280;3132;42.622;23.328;2023-07-13T07:45:36;93204.34;;;29.73;47.94
6198;BME280;3132;42.622;23.328;2023-07-13T07:48:03;93195.47;;;29.66;49.44
6198;BME280;3132;42.622;23.328;2023-07-13T07:50:28;93192.34;;;29.46;51.38
6198;BME280;3132;42.622;23.328;2023-07-13T07:52:54;93197.78;;;29.78;48.22
6198;BME280;3132;42.622;23.328;2023-07-13T07:55:21;93193.91;;;29.51;48.47
6198;BME280;3132;42.622;23.328;2023-07-13T07:57:47;93193.09;;;29.43;48.13
6198;BME280;3132;42.622;23.328;2023-07-13T08:00:13;93195.41;;;29.31;48.35
6198;BME280;3132;42.622;23.328;2023-07-13T08:02:38;93196.47;;;29.12;49.55
6198;BME280;3132;42.622;23.328;2023-07-13T08:05:07;93190.78;;;29.45;49.38
6198;BME280;3132;42.622;23.328;2023-07-13T08:07:32;93180.44;;;29.51;48.80
6198;BME280;3132;42.622;23.328;2023-07-13T08:09:58;93178.09;;;29.35;48.36
6198;BME280;3132;42.622;23.328;2023-07-13T08:12:23;93175.41;;;29.39;47.22
6198;BME280;3132;42.622;23.328;2023-07-13T08:14:52;93170.41;;;29.41;49.95
6198;BME280;3132;42.622;23.328;2023-07-13T08:17:24;93159.28;;;29.46;52.65
6198;BME280;3132;42.622;23.328;2023-07-13T08:19:50;93166.25;;;29.79;49.73
6198;BME280;3132;42.622;23.328;2023-07-13T08:22:15;93162.78;;;29.74;48.13
6198;BME280;3132;42.622;23.328;2023-07-13T08:24:41;93166.63;;;29.84;49.91
6198;BME280;3132;42.622;23.328;2023-07-13T08:27:08;93160.13;;;29.85;48.44
6198;BME280;3132;42.622;23.328;2023-07-13T08:29:33;93160.88;;;29.96;49.81
6198;BME280;3132;42.622;23.328;2023-07-13T08:31:58;93160.88;;;30.07;47.26
6198;BME280;3132;42.622;23.328;2023-07-13T08:34:24;93164.72;;;30.13;47.19
6198;BME280;3132;42.622;23.328;2023-07-13T08:36:49;93166.66;;;30.33;47.78
6198;BME280;3132;42.622;23.328;2023-07-13T08:39:15;93159.28;;;30.48;47.16
6198;BME280;3132;42.622;23.328;2023-07-13T08:41:40;93167.38;;;30.34;49.57
6198;BME280;3132;42.622;23.328;2023-07-13T08:44:16;93161.63;;;30.18;47.17
6198;BME280;3132;42.622;23.328;2023-07-13T08:46:45;93160.88;;;29.93;48.92
6198;BME280;3132;42.622;23.328;2023-07-13T08:49:17;93156.25;;;30.00;47.16
6198;BME280;3132;42.622;23.328;2023-07-13T08:51:51;93150.88;;;30.07;50.45
6198;BME280;3132;42.622;23.328;2023-07-13T08:54:35;93155.09;;;30.36;49.18
6198;BME280;3132;42.622;23.328;2023-07-13T08:57:10;93159.28;;;30.20;47.31
6198;BME280;3132;42.622;23.328;2023-07-13T08:59:37;93162.00;;;30.44;47.09
6198;BME280;3132;42.622;23.328;2023-07-13T09:05:03;93178.16;;;30.20;48.81
6198;BME280;3132;42.622;23.328;2023-07-13T09:10:44;93180.13;;;30.23;49.43
6198;BME280;3132;42.622;23.328;2023-07-13T09:13:25;93198.59;;;30.35;46.30
6198;BME280;3132;42.622;23.328;2023-07-13T09:15:52;93211.69;;;30.40;47.13
6198;BME280;3132;42.622;23.328;2023-07-13T09:20:56;93205.13;;;30.44;45.75
6198;BME280;3132;42.622;23.328;2023-07-13T09:23:23;93205.13;;;30.23;46.97
6198;BME280;3132;42.622;23.328;2023-07-13T09:25:53;93201.66;;;29.91;43.59
6198;BME280;3132;42.622;23.328;2023-07-13T09:28:27;93206.25;;;30.64;43.82
6198;BME280;3132;42.622;23.328;2023-07-13T09:31:16;93193.84;;;30.95;39.82
6198;BME280;3132;42.622;23.328;2023-07-13T09:33:42;93193.03;;;31.05;40.51
6198;BME280;3132;42.622;23.328;2023-07-13T09:36:34;93202.38;;;30.83;39.74
6198;BME280;3132;42.622;23.328;2023-07-13T09:41:43;93200.47;;;30.69;41.48
6198;BME280;3132;42.622;23.328;2023-07-13T09:44:15;93184.97;;;30.98;42.92
6198;BME280;3132;42.622;23.328;2023-07-13T09:46:46;93188.97;;;30.44;41.99
6198;BME280;3132;42.622;23.328;2023-07-13T09:49:12;93180.03;;;30.68;44.51
6198;BME280;3132;42.622;23.328;2023-07-13T09:51:40;93163.88;;;30.58;41.39
6198;BME280;3132;42.622;23.328;2023-07-13T09:54:08;93172.31;;;30.88;42.97
6198;BME280;3132;42.622;23.328;2023-07-13T09:56:42;93174.91;;;31.05;42.23
6198;BME280;3132;42.622;23.328;2023-07-13T09:59:19;93168.66;;;31.26;41.10
6198;BME280;3132;42.622;23.328;2023-07-13T10:01:45;93167.41;;;31.48;41.64
6198;BME280;3132;42.622;23.328;2023-07-13T10:04:14;93164.38;;;31.36;38.90
6198;BME280;3132;42.622;23.328;2023-07-13T10:06:41;93160.50;;;31.40;39.55
6198;BME280;3132;42.622;23.328;2023-07-13T10:09:08;93157.47;;;31.24;43.49
6198;BME280;3132;42.622;23.328;2023-07-13T10:11:35;93151.81;;;31.01;42.66
6198;BME280;3132;42.622;23.328;2023-07-13T10:14:10;93142.78;;;31.36;40.86
6198;BME280;3132;42.622;23.328;2023-07-13T10:16:36;93147.13;;;31.77;41.84
6198;BME280;3132;42.622;23.328;2023-07-13T10:19:08;93138.22;;;31.80;41.42
6198;BME280;3132;42.622;23.328;2023-07-13T10:21:39;93150.13;;;31.90;42.54
6198;BME280;3132;42.622;23.328;2023-07-13T10:24:22;93145.38;;;32.08;39.34
6198;BME280;3132;42.622;23.328;2023-07-13T10:26:56;93140.78;;;32.01;39.37
6198;BME280;3132;42.622;23.328;2023-07-13T10:29:26;93151.50;;;32.12;41.41
6198;BME280;3132;42.622;23.328;2023-07-13T10:31:52;93141.34;;;32.26;39.96
6198;BME280;3132;42.622;23.328;2023-07-13T10:34:17;93146.28;;;32.31;38.96
6198;BME280;3132;42.622;23.328;2023-07-13T10:36:45;93140.78;;;32.45;38.76
6198;BME280;3132;42.622;23.328;2023-07-13T10:39:21;93127.47;;;32.21;37.67
6198;BME280;3132;42.622;23.328;2023-07-13T10:41:52;93133.16;;;32.30;39.21
6198;BME280;3132;42.622;23.328;2023-07-13T10:44:22;93130.16;;;32.24;41.80
6198;BME280;3132;42.622;23.328;2023-07-13T10:46:58;93129.66;;;32.36;39.49
6198;BME280;3132;42.622;23.328;2023-07-13T10:49:27;93131.25;;;32.67;39.18
6198;BME280;3132;42.622;23.328;2023-07-13T10:51:53;93122.41;;;32.67;36.99
6198;BME280;3132;42.622;23.328;2023-07-13T10:54:31;93119.44;;;32.54;39.44
6198;BME280;3132;42.622;23.328;2023-07-13T10:59:37;93108.44;;;32.31;40.02
6198;BME280;3132;42.622;23.328;2023-07-13T11:04:47;93102.81;;;32.56;39.19
6198;BME280;3132;42.622;23.328;2023-07-13T11:09:56;93094.84;;;32.76;40.49
6198;BME280;3132;42.622;23.328;2023-07-13T11:22:52;93079.97;;;32.60;36.94
6198;BME280;3132;42.622;23.328;2023-07-13T11:25:25;93076.75;;;32.69;36.96
6198;BME280;3132;42.622;23.328;2023-07-13T11:30:45;93076.66;;;33.10;35.25
6198;BME280;3132;42.622;23.328;2023-07-13T11:36:10;93077.19;;;32.98;39.61
6198;BME280;3132;42.622;23.328;2023-07-13T11:41:51;93081.44;;;33.25;34.39
6198;BME280;3132;42.622;23.328;2023-07-13T11:44:18;93072.78;;;33.11;34.87
6198;BME280;3132;42.622;23.328;2023-07-13T11:46:52;93069.91;;;33.21;37.71
6198;BME280;3132;42.622;23.328;2023-07-13T11:49:20;93065.47;;;33.34;34.13
6198;BME280;3132;42.622;23.328;2023-07-13T11:51:46;93077.00;;;33.42;35.33
6198;BME280;3132;42.622;23.328;2023-07-13T11:54:32;93061.06;;;32.91;36.28
6198;BME280;3132;42.622;23.328;2023-07-13T11:57:28;93063.28;;;33.26;37.26
6198;BME280;3132;42.622;23.328;2023-07-13T11:59:55;93059.94;;;33.15;35.93
6198;BME280;3132;42.622;23.328;2023-07-13T12:04:55;93048.78;;;33.39;34.35
6198;BME280;3132;42.622;23.328;2023-07-13T12:07:22;93053.34;;;32.89;33.04
6198;BME280;3132;42.622;23.328;2023-07-13T12:09:48;93047.94;;;33.16;34.35
6198;BME280;3132;42.622;23.328;2023-07-13T12:12:21;93044.44;;;32.58;32.72
6198;BME280;3132;42.622;23.328;2023-07-13T12:14:51;93038.75;;;33.10;34.21
6198;BME280;3132;42.622;23.328;2023-07-13T12:17:22;93051.16;;;33.34;34.61
6198;BME280;3132;42.622;23.328;2023-07-13T12:19:49;93048.38;;;33.64;31.73
6198;BME280;3132;42.622;23.328;2023-07-13T12:22:17;93039.78;;;33.69;32.67
6198;BME280;3132;42.622;23.328;2023-07-13T12:24:44;93043.75;;;33.64;34.58
6198;BME280;3132;42.622;23.328;2023-07-13T12:27:18;93031.56;;;33.76;32.10
6198;BME280;3132;42.622;23.328;2023-07-13T12:30:24;93027.88;;;33.86;33.77
6198;BME280;3132;42.622;23.328;2023-07-13T12:33:08;93022.75;;;33.68;32.52
6198;BME280;3132;42.622;23.328;2023-07-13T12:35:45;93019.78;;;33.36;35.12
6198;BME280;3132;42.622;23.328;2023-07-13T12:38:11;93019.78;;;33.63;32.65
6198;BME280;3132;42.622;23.328;2023-07-13T12:40:38;93017.47;;;33.61;33.11
6198;BME280;3132;42.622;23.328;2023-07-13T12:43:09;93015.66;;;33.55;34.64
6198;BME280;3132;42.622;23.328;2023-07-13T12:45:36;92999.94;;;33.69;32.00
6198;BME280;3132;42.622;23.328;2023-07-13T12:48:13;93014.41;;;33.59;33.69
6198;BME280;3132;42.622;23.328;2023-07-13T12:50:45;93000.94;;;33.56;32.24
6198;BME280;3132;42.622;23.328;2023-07-13T12:53:17;93002.63;;;33.69;32.96
6198;BME280;3132;42.622;23.328;2023-07-13T12:55:48;93009.66;;;33.90;31.90
6198;BME280;3132;42.622;23.328;2023-07-13T12:58:32;92998.91;;;33.83;33.87
6198;BME280;3132;42.622;23.328;2023-07-13T13:01:02;92993.97;;;33.78;32.36
6198;BME280;3132;42.622;23.328;2023-07-13T13:03:31;93000.84;;;33.82;32.67
6198;BME280;3132;42.622;23.328;2023-07-13T13:08:51;92987.72;;;33.81;32.02
6198;BME280;3132;42.622;23.328;2023-07-13T13:11:17;92987.47;;;33.95;31.47
6198;BME280;3132;42.622;23.328;2023-07-13T13:13:44;92981.09;;;34.05;31.09
6198;BME280;3132;42.622;23.328;2023-07-13T13:16:14;92977.34;;;33.99;30.95
6198;BME280;3132;42.622;23.328;2023-07-13T13:18:42;92975.47;;;33.96;31.16
6198;BME280;3132;42.622;23.328;2023-07-13T13:21:09;92979.03;;;33.93;30.00
6198;BME280;3132;42.622;23.328;2023-07-13T13:23:35;92983.13;;;34.01;30.38
6198;BME280;3132;42.622;23.328;2023-07-13T13:26:01;92975.88;;;33.94;32.02
6198;BME280;3132;42.622;23.328;2023-07-13T13:28:27;92976.94;;;34.00;30.98
6198;BME280;3132;42.622;23.328;2023-07-13T13:30:52;92941.84;;;33.70;33.82
6198;BME280;3132;42.622;23.328;2023-07-13T13:33:19;92975.75;;;34.01;32.56
6198;BME280;3132;42.622;23.328;2023-07-13T13:35:45;92970.75;;;33.77;33.23
6198;BME280;3132;42.622;23.328;2023-07-13T13:38:12;92972.22;;;33.81;32.77
6198;BME280;3132;42.622;23.328;2023-07-13T13:40:40;92970.53;;;33.91;32.21
6198;BME280;3132;42.622;23.328;2023-07-13T13:43:14;92965.25;;;34.03;33.13
6198;BME280;3132;42.622;23.328;2023-07-13T13:45:42;92964.84;;;34.05;30.78
6198;BME280;3132;42.622;23.328;2023-07-13T13:48:14;92963.66;;;34.06;31.96
6198;BME280;3132;42.622;23.328;2023-07-13T13:50:40;92959.47;;;34.01;30.06
6198;BME280;3132;42.622;23.328;2023-07-13T13:53:09;92961.56;;;33.94;32.21
6198;BME280;3132;42.622;23.328;2023-07-13T13:55:35;92961.69;;;33.87;32.85
6198;BME280;3132;42.622;23.328;2023-07-13T13:58:00;92955.88;;;34.08;30.87
6198;BME280;3132;42.622;23.328;2023-07-13T14:00:26;92964.34;;;33.90;30.99
6198;BME280;3132;42.622;23.328;2023-07-13T14:02:51;92959.78;;;33.84;30.70
6198;BME280;3132;42.622;23.328;2023-07-13T14:05:26;92954.56;;;34.16;30.23